sensor_id;sensor_type;location;lat;lon;timestamp;P1;durP1;ratioP1;P2;durP2;ratioP2
39218;SDS011;24934;52.752;6.964;2023-01-24T00:00:05;50.50;;;34.57;;
39218;SDS011;24934;52.752;6.964;2023-01-24T00:02:34;51.67;;;34.20;;
39218;SDS011;24934;52.752;6.964;2023-01-24T00:05:00;56.13;;;34.90;;
39218;SDS011;24934;52.752;6.964;2023-01-24T00:07:25;52.60;;;33.43;;
39218;SDS011;24934;52.752;6.964;2023-01-24T00:09:51;54.40;;;35.27;;
39218;SDS011;24934;52.752;6.964;2023-01-24T00:12:16;56.10;;;35.33;;
39218;SDS011;24934;52.752;6.964;2023-01-24T00:14:42;52.50;;;34.63;;
39218;SDS011;24934;52.752;6.964;2023-01-24T00:17:07;52.83;;;33.60;;
39218;SDS011;24934;52.752;6.964;2023-01-24T00:19:33;54.13;;;35.67;;
39218;SDS011;24934;52.752;6.964;2023-01-24T00:22:00;51.07;;;34.07;;
39218;SDS011;24934;52.752;6.964;2023-01-24T00:24:27;55.27;;;35.03;;
39218;SDS011;24934;52.752;6.964;2023-01-24T00:26:54;48.63;;;32.47;;
39218;SDS011;24934;52.752;6.964;2023-01-24T00:29:20;52.40;;;33.87;;
39218;SDS011;24934;52.752;6.964;2023-01-24T00:31:45;55.50;;;34.23;;
39218;SDS011;24934;52.752;6.964;2023-01-24T00:34:11;53.13;;;33.93;;
39218;SDS011;24934;52.752;6.964;2023-01-24T00:36:37;54.77;;;35.43;;
39218;SDS011;24934;52.752;6.964;2023-01-24T00:39:02;54.90;;;35.87;;
39218;SDS011;24934;52.752;6.964;2023-01-24T00:41:28;56.60;;;34.23;;
39218;SDS011;24934;52.752;6.964;2023-01-24T00:43:54;54.57;;;34.10;;
39218;SDS011;24934;52.752;6.964;2023-01-24T00:46:20;53.77;;;35.10;;
39218;SDS011;24934;52.752;6.964;2023-01-24T00:48:46;56.37;;;34.60;;
39218;SDS011;24934;52.752;6.964;2023-01-24T00:51:11;52.60;;;35.67;;
39218;SDS011;24934;52.752;6.964;2023-01-24T00:53:37;55.13;;;34.63;;
39218;SDS011;24934;52.752;6.964;2023-01-24T00:56:03;53.77;;;35.10;;
39218;SDS011;24934;52.752;6.964;2023-01-24T00:58:28;54.43;;;34.40;;
39218;SDS011;24934;52.752;6.964;2023-01-24T01:00:55;53.40;;;35.07;;
39218;SDS011;24934;52.752;6.964;2023-01-24T01:03:22;54.97;;;34.73;;
39218;SDS011;24934;52.752;6.964;2023-01-24T01:05:47;55.83;;;35.03;;
39218;SDS011;24934;52.752;6.964;2023-01-24T01:08:13;58.77;;;35.63;;
39218;SDS011;24934;52.752;6.964;2023-01-24T01:10:39;54.53;;;34.37;;
39218;SDS011;24934;52.752;6.964;2023-01-24T01:13:05;50.77;;;32.83;;
39218;SDS011;24934;52.752;6.964;2023-01-24T01:15:33;47.83;;;30.90;;
39218;SDS011;24934;52.752;6.964;2023-01-24T01:17:59;39.77;;;28.33;;
39218;SDS011;24934;52.752;6.964;2023-01-24T01:20:25;41.87;;;28.70;;
39218;SDS011;24934;52.752;6.964;2023-01-24T01:22:51;48.53;;;30.90;;
39218;SDS011;24934;52.752;6.964;2023-01-24T01:25:17;44.60;;;29.73;;
39218;SDS011;24934;52.752;6.964;2023-01-24T01:27:43;45.57;;;30.73;;
39218;SDS011;24934;52.752;6.964;2023-01-24T01:30:08;44.10;;;30.07;;
39218;SDS011;24934;52.752;6.964;2023-01-24T01:32:34;40.57;;;29.53;;
39218;SDS011;24934;52.752;6.964;2023-01-24T01:35:00;43.97;;;29.60;;
39218;SDS011;24934;52.752;6.964;2023-01-24T01:37:25;46.27;;;31.20;;
39218;SDS011;24934;52.752;6.964;2023-01-24T01:39:51;43.37;;;29.73;;
39218;SDS011;24934;52.752;6.964;2023-01-24T01:42:17;43.63;;;29.70;;
39218;SDS011;24934;52.752;6.964;2023-01-24T01:44:42;46.33;;;31.00;;
39218;SDS011;24934;52.752;6.964;2023-01-24T01:49:46;48.00;;;30.47;;
39218;SDS011;24934;52.752;6.964;2023-01-24T01:52:36;41.57;;;28.03;;
39218;SDS011;24934;52.752;6.964;2023-01-24T01:55:06;38.53;;;26.73;;
39218;SDS011;24934;52.752;6.964;2023-01-24T01:57:37;38.37;;;26.83;;
39218;SDS011;24934;52.752;6.964;2023-01-24T02:02:37;31.70;;;24.33;;
39218;SDS011;24934;52.752;6.964;2023-01-24T02:05:05;33.80;;;25.93;;
39218;SDS011;24934;52.752;6.964;2023-01-24T02:07:50;33.70;;;25.70;;
39218;SDS011;24934;52.752;6.964;2023-01-24T02:10:21;37.23;;;26.17;;
39218;SDS011;24934;52.752;6.964;2023-01-24T02:12:49;37.87;;;26.93;;
39218;SDS011;24934;52.752;6.964;2023-01-24T02:15:20;40.40;;;26.17;;
39218;SDS011;24934;52.752;6.964;2023-01-24T02:18:06;33.60;;;25.17;;
39218;SDS011;24934;52.752;6.964;2023-01-24T02:25:46;34.40;;;24.03;;
39218;SDS011;24934;52.752;6.964;2023-01-24T02:28:23;31.50;;;23.50;;
39218;SDS011;24934;52.752;6.964;2023-01-24T02:30:49;35.27;;;23.03;;
39218;SDS011;24934;52.752;6.964;2023-01-24T02:33:19;32.10;;;23.50;;
39218;SDS011;24934;52.752;6.964;2023-01-24T02:35:45;29.33;;;22.20;;
39218;SDS011;24934;52.752;6.964;2023-01-24T02:38:14;28.50;;;22.03;;
39218;SDS011;24934;52.752;6.964;2023-01-24T02:40:40;26.43;;;20.50;;
39218;SDS011;24934;52.752;6.964;2023-01-24T02:43:06;27.47;;;21.60;;
39218;SDS011;24934;52.752;6.964;2023-01-24T02:45:35;27.83;;;22.13;;
39218;SDS011;24934;52.752;6.964;2023-01-24T02:48:01;26.80;;;20.63;;
39218;SDS011;24934;52.752;6.964;2023-01-24T02:50:27;28.03;;;21.37;;
39218;SDS011;24934;52.752;6.964;2023-01-24T02:52:54;26.60;;;20.80;;
39218;SDS011;24934;52.752;6.964;2023-01-24T02:55:38;30.43;;;21.90;;
39218;SDS011;24934;52.752;6.964;2023-01-24T02:58:22;26.77;;;20.63;;
39218;SDS011;24934;52.752;6.964;2023-01-24T03:00:48;26.67;;;19.80;;
39218;SDS011;24934;52.752;6.964;2023-01-24T03:03:13;24.93;;;19.90;;
39218;SDS011;24934;52.752;6.964;2023-01-24T03:05:39;28.73;;;20.37;;
39218;SDS011;24934;52.752;6.964;2023-01-24T03:08:18;25.53;;;20.73;;
39218;SDS011;24934;52.752;6.964;2023-01-24T03:10:43;24.83;;;20.47;;
39218;SDS011;24934;52.752;6.964;2023-01-24T03:13:11;24.17;;;19.53;;
39218;SDS011;24934;52.752;6.964;2023-01-24T03:15:58;24.03;;;19.47;;
39218;SDS011;24934;52.752;6.964;2023-01-24T03:18:43;24.00;;;18.80;;
39218;SDS011;24934;52.752;6.964;2023-01-24T03:21:27;21.90;;;18.50;;
39218;SDS011;24934;52.752;6.964;2023-01-24T03:24:11;22.57;;;17.87;;
39218;SDS011;24934;52.752;6.964;2023-01-24T03:26:55;23.53;;;18.27;;
39218;SDS011;24934;52.752;6.964;2023-01-24T03:29:39;22.67;;;18.23;;
39218;SDS011;24934;52.752;6.964;2023-01-24T03:32:23;24.60;;;19.27;;
39218;SDS011;24934;52.752;6.964;2023-01-24T03:35:07;22.87;;;18.17;;
39218;SDS011;24934;52.752;6.964;2023-01-24T03:37:33;23.17;;;18.07;;
39218;SDS011;24934;52.752;6.964;2023-01-24T03:40:17;24.43;;;19.60;;
39218;SDS011;24934;52.752;6.964;2023-01-24T03:42:43;24.17;;;18.20;;
39218;SDS011;24934;52.752;6.964;2023-01-24T03:45:21;20.37;;;17.90;;
39218;SDS011;24934;52.752;6.964;2023-01-24T03:47:51;21.73;;;17.40;;
39218;SDS011;24934;52.752;6.964;2023-01-24T03:50:24;21.33;;;17.87;;
39218;SDS011;24934;52.752;6.964;2023-01-24T03:53:12;23.87;;;18.80;;
39218;SDS011;24934;52.752;6.964;2023-01-24T03:55:39;21.93;;;18.40;;
39218;SDS011;24934;52.752;6.964;2023-01-24T03:58:05;24.40;;;18.33;;
39218;SDS011;24934;52.752;6.964;2023-01-24T04:00:32;23.37;;;17.23;;
39218;SDS011;24934;52.752;6.964;2023-01-24T04:02:59;21.33;;;17.47;;
39218;SDS011;24934;52.752;6.964;2023-01-24T04:05:24;22.37;;;18.20;;
39218;SDS011;24934;52.752;6.964;2023-01-24T04:07:50;21.27;;;18.00;;
39218;SDS011;24934;52.752;6.964;2023-01-24T04:10:20;21.60;;;18.33;;
39218;SDS011;24934;52.752;6.964;2023-01-24T04:12:47;23.50;;;18.30;;
39218;SDS011;24934;52.752;6.964;2023-01-24T04:15:17;21.67;;;17.80;;
39218;SDS011;24934;52.752;6.964;2023-01-24T04:17:44;21.23;;;17.93;;
39218;SDS011;24934;52.752;6.964;2023-01-24T04:20:10;21.50;;;17.30;;
39218;SDS011;24934;52.752;6.964;2023-01-24T04:22:36;27.80;;;18.40;;
39218;SDS011;24934;52.752;6.964;2023-01-24T04:25:02;24.80;;;18.63;;
39218;SDS011;24934;52.752;6.964;2023-01-24T04:27:28;21.20;;;17.27;;
39218;SDS011;24934;52.752;6.964;2023-01-24T04:29:53;20.07;;;17.07;;
39218;SDS011;24934;52.752;6.964;2023-01-24T04:32:19;22.70;;;17.33;;
39218;SDS011;24934;52.752;6.964;2023-01-24T04:34:44;22.03;;;17.80;;
39218;SDS011;24934;52.752;6.964;2023-01-24T04:37:10;21.07;;;17.90;;
39218;SDS011;24934;52.752;6.964;2023-01-24T04:39:35;21.40;;;17.87;;
39218;SDS011;24934;52.752;6.964;2023-01-24T04:42:01;21.97;;;17.40;;
39218;SDS011;24934;52.752;6.964;2023-01-24T04:44:27;21.60;;;17.60;;
39218;SDS011;24934;52.752;6.964;2023-01-24T04:46:52;23.53;;;18.43;;
39218;SDS011;24934;52.752;6.964;2023-01-24T04:49:18;21.27;;;17.63;;
39218;SDS011;24934;52.752;6.964;2023-01-24T04:51:46;19.80;;;17.60;;
39218;SDS011;24934;52.752;6.964;2023-01-24T04:54:12;24.50;;;19.10;;
39218;SDS011;24934;52.752;6.964;2023-01-24T04:56:38;23.43;;;18.43;;
39218;SDS011;24934;52.752;6.964;2023-01-24T04:59:04;23.27;;;17.87;;
39218;SDS011;24934;52.752;6.964;2023-01-24T05:01:30;21.90;;;18.40;;
39218;SDS011;24934;52.752;6.964;2023-01-24T05:03:56;23.17;;;18.70;;
39218;SDS011;24934;52.752;6.964;2023-01-24T05:06:27;23.30;;;18.30;;
39218;SDS011;24934;52.752;6.964;2023-01-24T05:08:54;24.70;;;18.97;;
39218;SDS011;24934;52.752;6.964;2023-01-24T05:11:21;25.87;;;19.27;;
39218;SDS011;24934;52.752;6.964;2023-01-24T05:13:47;24.27;;;18.77;;
39218;SDS011;24934;52.752;6.964;2023-01-24T05:16:14;23.57;;;18.77;;
39218;SDS011;24934;52.752;6.964;2023-01-24T05:18:39;24.07;;;19.43;;
39218;SDS011;24934;52.752;6.964;2023-01-24T05:21:10;22.67;;;18.70;;
39218;SDS011;24934;52.752;6.964;2023-01-24T05:23:37;25.57;;;19.17;;
39218;SDS011;24934;52.752;6.964;2023-01-24T05:26:03;24.80;;;19.27;;
39218;SDS011;24934;52.752;6.964;2023-01-24T05:28:29;22.80;;;18.13;;
39218;SDS011;24934;52.752;6.964;2023-01-24T05:30:59;26.20;;;20.13;;
39218;SDS011;24934;52.752;6.964;2023-01-24T05:33:25;25.80;;;19.13;;
39218;SDS011;24934;52.752;6.964;2023-01-24T05:36:01;23.97;;;18.77;;
39218;SDS011;24934;52.752;6.964;2023-01-24T05:38:28;24.20;;;19.37;;
39218;SDS011;24934;52.752;6.964;2023-01-24T05:40:58;22.23;;;18.70;;
39218;SDS011;24934;52.752;6.964;2023-01-24T05:43:24;24.23;;;19.47;;
39218;SDS011;24934;52.752;6.964;2023-01-24T05:45:50;22.73;;;18.67;;
39218;SDS011;24934;52.752;6.964;2023-01-24T05:48:16;22.70;;;19.00;;
39218;SDS011;24934;52.752;6.964;2023-01-24T05:50:41;21.87;;;18.53;;
39218;SDS011;24934;52.752;6.964;2023-01-24T05:53:07;23.33;;;18.83;;
39218;SDS011;24934;52.752;6.964;2023-01-24T05:55:33;23.80;;;19.17;;
39218;SDS011;24934;52.752;6.964;2023-01-24T05:57:59;23.03;;;18.77;;
39218;SDS011;24934;52.752;6.964;2023-01-24T06:00:25;22.30;;;18.67;;
39218;SDS011;24934;52.752;6.964;2023-01-24T06:02:51;22.37;;;18.50;;
39218;SDS011;24934;52.752;6.964;2023-01-24T06:05:16;26.60;;;19.60;;
39218;SDS011;24934;52.752;6.964;2023-01-24T06:07:42;22.57;;;19.07;;
39218;SDS011;24934;52.752;6.964;2023-01-24T06:10:08;21.87;;;18.47;;
39218;SDS011;24934;52.752;6.964;2023-01-24T06:12:34;23.13;;;18.97;;
39218;SDS011;24934;52.752;6.964;2023-01-24T06:14:59;21.80;;;17.50;;
39218;SDS011;24934;52.752;6.964;2023-01-24T06:17:25;22.53;;;18.33;;
39218;SDS011;24934;52.752;6.964;2023-01-24T06:19:51;22.57;;;18.87;;
39218;SDS011;24934;52.752;6.964;2023-01-24T06:25:17;22.10;;;18.63;;
39218;SDS011;24934;52.752;6.964;2023-01-24T06:27:46;25.30;;;19.83;;
39218;SDS011;24934;52.752;6.964;2023-01-24T06:30:16;24.67;;;18.80;;
39218;SDS011;24934;52.752;6.964;2023-01-24T06:35:36;25.73;;;19.23;;
39218;SDS011;24934;52.752;6.964;2023-01-24T06:38:22;21.90;;;18.63;;
39218;SDS011;24934;52.752;6.964;2023-01-24T06:40:50;22.43;;;18.83;;
39218;SDS011;24934;52.752;6.964;2023-01-24T06:43:21;23.27;;;18.97;;
39218;SDS011;24934;52.752;6.964;2023-01-24T06:45:47;24.57;;;18.80;;
39218;SDS011;24934;52.752;6.964;2023-01-24T06:48:13;23.37;;;19.50;;
39218;SDS011;24934;52.752;6.964;2023-01-24T06:50:39;22.97;;;19.27;;
39218;SDS011;24934;52.752;6.964;2023-01-24T06:53:05;24.07;;;19.40;;
39218;SDS011;24934;52.752;6.964;2023-01-24T06:55:33;22.07;;;19.67;;
39218;SDS011;24934;52.752;6.964;2023-01-24T06:57:59;25.40;;;19.90;;
39218;SDS011;24934;52.752;6.964;2023-01-24T07:00:27;22.00;;;18.63;;
39218;SDS011;24934;52.752;6.964;2023-01-24T07:03:00;23.43;;;20.00;;
39218;SDS011;24934;52.752;6.964;2023-01-24T07:05:28;28.33;;;19.67;;
39218;SDS011;24934;52.752;6.964;2023-01-24T07:07:54;23.73;;;20.23;;
39218;SDS011;24934;52.752;6.964;2023-01-24T07:10:20;25.43;;;19.93;;
39218;SDS011;24934;52.752;6.964;2023-01-24T07:12:46;25.57;;;20.33;;
39218;SDS011;24934;52.752;6.964;2023-01-24T07:15:11;24.33;;;20.47;;
39218;SDS011;24934;52.752;6.964;2023-01-24T07:17:37;23.37;;;20.43;;
39218;SDS011;24934;52.752;6.964;2023-01-24T07:20:03;23.83;;;20.20;;
39218;SDS011;24934;52.752;6.964;2023-01-24T07:22:29;23.50;;;20.13;;
39218;SDS011;24934;52.752;6.964;2023-01-24T07:24:55;25.43;;;21.23;;
39218;SDS011;24934;52.752;6.964;2023-01-24T07:27:21;24.13;;;21.53;;
39218;SDS011;24934;52.752;6.964;2023-01-24T07:29:47;24.23;;;20.80;;
39218;SDS011;24934;52.752;6.964;2023-01-24T07:32:13;23.67;;;20.40;;
39218;SDS011;24934;52.752;6.964;2023-01-24T07:34:39;25.50;;;20.70;;
39218;SDS011;24934;52.752;6.964;2023-01-24T07:37:07;26.70;;;21.87;;
39218;SDS011;24934;52.752;6.964;2023-01-24T07:39:33;27.37;;;21.30;;
39218;SDS011;24934;52.752;6.964;2023-01-24T07:41:59;26.17;;;21.27;;
39218;SDS011;24934;52.752;6.964;2023-01-24T07:44:25;28.03;;;22.17;;
39218;SDS011;24934;52.752;6.964;2023-01-24T07:46:50;25.87;;;21.83;;
39218;SDS011;24934;52.752;6.964;2023-01-24T07:49:16;24.93;;;21.23;;
39218;SDS011;24934;52.752;6.964;2023-01-24T07:51:42;24.60;;;21.70;;
39218;SDS011;24934;52.752;6.964;2023-01-24T07:54:08;27.63;;;23.17;;
39218;SDS011;24934;52.752;6.964;2023-01-24T07:56:33;24.70;;;21.63;;
39218;SDS011;24934;52.752;6.964;2023-01-24T07:58:59;30.67;;;23.47;;
39218;SDS011;24934;52.752;6.964;2023-01-24T08:01:25;26.07;;;22.37;;
39218;SDS011;24934;52.752;6.964;2023-01-24T08:03:57;28.53;;;23.20;;
39218;SDS011;24934;52.752;6.964;2023-01-24T08:06:23;27.53;;;22.63;;
39218;SDS011;24934;52.752;6.964;2023-01-24T08:08:49;28.43;;;23.00;;
39218;SDS011;24934;52.752;6.964;2023-01-24T08:11:15;28.20;;;22.70;;
39218;SDS011;24934;52.752;6.964;2023-01-24T08:13:43;28.20;;;23.03;;
39218;SDS011;24934;52.752;6.964;2023-01-24T08:16:08;25.93;;;22.37;;
39218;SDS011;24934;52.752;6.964;2023-01-24T08:18:36;27.73;;;23.10;;
39218;SDS011;24934;52.752;6.964;2023-01-24T08:21:03;25.87;;;22.37;;
39218;SDS011;24934;52.752;6.964;2023-01-24T08:23:29;28.00;;;23.33;;
39218;SDS011;24934;52.752;6.964;2023-01-24T08:25:59;28.57;;;23.33;;
39218;SDS011;24934;52.752;6.964;2023-01-24T08:28:25;27.47;;;22.77;;
39218;SDS011;24934;52.752;6.964;2023-01-24T08:30:51;28.87;;;22.23;;
39218;SDS011;24934;52.752;6.964;2023-01-24T08:33:17;28.07;;;22.77;;
39218;SDS011;24934;52.752;6.964;2023-01-24T08:35:47;28.17;;;23.33;;
39218;SDS011;24934;52.752;6.964;2023-01-24T08:38:13;27.27;;;22.27;;
39218;SDS011;24934;52.752;6.964;2023-01-24T08:40:40;25.30;;;21.83;;
39218;SDS011;24934;52.752;6.964;2023-01-24T08:43:06;24.47;;;21.33;;
39218;SDS011;24934;52.752;6.964;2023-01-24T08:45:32;29.77;;;23.60;;
39218;SDS011;24934;52.752;6.964;2023-01-24T08:47:58;26.50;;;22.30;;
39218;SDS011;24934;52.752;6.964;2023-01-24T08:50:23;26.77;;;22.40;;
39218;SDS011;24934;52.752;6.964;2023-01-24T08:52:49;25.43;;;21.63;;
39218;SDS011;24934;52.752;6.964;2023-01-24T08:55:19;26.70;;;23.20;;
39218;SDS011;24934;52.752;6.964;2023-01-24T08:57:45;25.97;;;21.90;;
39218;SDS011;24934;52.752;6.964;2023-01-24T09:00:11;27.93;;;22.93;;
39218;SDS011;24934;52.752;6.964;2023-01-24T09:02:37;23.93;;;20.93;;
39218;SDS011;24934;52.752;6.964;2023-01-24T09:05:04;25.13;;;21.47;;
39218;SDS011;24934;52.752;6.964;2023-01-24T09:07:30;24.80;;;22.03;;
39218;SDS011;24934;52.752;6.964;2023-01-24T09:09:56;25.63;;;22.27;;
39218;SDS011;24934;52.752;6.964;2023-01-24T09:12:21;26.53;;;22.00;;
39218;SDS011;24934;52.752;6.964;2023-01-24T09:14:50;29.43;;;22.20;;
39218;SDS011;24934;52.752;6.964;2023-01-24T09:17:16;24.00;;;21.50;;
39218;SDS011;24934;52.752;6.964;2023-01-24T09:19:41;27.47;;;22.07;;
39218;SDS011;24934;52.752;6.964;2023-01-24T09:22:07;27.03;;;22.07;;
39218;SDS011;24934;52.752;6.964;2023-01-24T09:24:32;29.07;;;23.03;;
39218;SDS011;24934;52.752;6.964;2023-01-24T09:27:01;26.60;;;22.90;;
39218;SDS011;24934;52.752;6.964;2023-01-24T09:29:27;27.80;;;22.97;;
39218;SDS011;24934;52.752;6.964;2023-01-24T09:31:52;27.10;;;22.80;;
39218;SDS011;24934;52.752;6.964;2023-01-24T09:34:20;27.27;;;21.93;;
39218;SDS011;24934;52.752;6.964;2023-01-24T09:36:46;27.07;;;22.37;;
39218;SDS011;24934;52.752;6.964;2023-01-24T09:39:13;25.83;;;22.13;;
39218;SDS011;24934;52.752;6.964;2023-01-24T09:41:48;26.40;;;21.90;;
39218;SDS011;24934;52.752;6.964;2023-01-24T09:45:12;25.93;;;22.50;;
39218;SDS011;24934;52.752;6.964;2023-01-24T09:47:17;23.80;;;21.20;;
39218;SDS011;24934;52.752;6.964;2023-01-24T09:49:49;25.53;;;22.13;;
39218;SDS011;24934;52.752;6.964;2023-01-24T09:52:26;25.63;;;22.83;;
39218;SDS011;24934;52.752;6.964;2023-01-24T09:54:56;27.57;;;23.03;;
39218;SDS011;24934;52.752;6.964;2023-01-24T10:00:24;24.07;;;21.47;;
39218;SDS011;24934;52.752;6.964;2023-01-24T10:02:56;28.43;;;24.07;;
39218;SDS011;24934;52.752;6.964;2023-01-24T10:05:34;26.77;;;22.13;;
39218;SDS011;24934;52.752;6.964;2023-01-24T10:08:26;32.73;;;23.33;;
39218;SDS011;24934;52.752;6.964;2023-01-24T10:19:04;25.47;;;22.50;;
39218;SDS011;24934;52.752;6.964;2023-01-24T10:24:34;26.27;;;22.80;;
39218;SDS011;24934;52.752;6.964;2023-01-24T10:27:21;26.30;;;22.20;;
39218;SDS011;24934;52.752;6.964;2023-01-24T10:30:15;27.73;;;23.30;;
39218;SDS011;24934;52.752;6.964;2023-01-24T10:32:42;25.80;;;22.13;;
39218;SDS011;24934;52.752;6.964;2023-01-24T10:35:13;27.47;;;24.07;;
39218;SDS011;24934;52.752;6.964;2023-01-24T10:37:47;27.93;;;23.27;;
39218;SDS011;24934;52.752;6.964;2023-01-24T10:40:19;23.67;;;21.17;;
39218;SDS011;24934;52.752;6.964;2023-01-24T10:42:45;25.83;;;22.00;;
39218;SDS011;24934;52.752;6.964;2023-01-24T10:48:36;25.23;;;21.43;;
39218;SDS011;24934;52.752;6.964;2023-01-24T10:51:24;22.57;;;20.10;;
39218;SDS011;24934;52.752;6.964;2023-01-24T10:53:50;24.90;;;21.27;;
39218;SDS011;24934;52.752;6.964;2023-01-24T10:56:20;25.60;;;21.37;;
39218;SDS011;24934;52.752;6.964;2023-01-24T10:58:59;25.37;;;22.13;;
39218;SDS011;24934;52.752;6.964;2023-01-24T11:01:45;25.23;;;21.43;;
39218;SDS011;24934;52.752;6.964;2023-01-24T11:06:49;25.93;;;22.40;;
39218;SDS011;24934;52.752;6.964;2023-01-24T11:09:27;24.10;;;21.53;;
39218;SDS011;24934;52.752;6.964;2023-01-24T11:11:56;26.53;;;22.00;;
39218;SDS011;24934;52.752;6.964;2023-01-24T11:14:27;23.97;;;21.37;;
39218;SDS011;24934;52.752;6.964;2023-01-24T11:16:58;25.03;;;21.60;;
39218;SDS011;24934;52.752;6.964;2023-01-24T11:19:33;23.47;;;20.90;;
39218;SDS011;24934;52.752;6.964;2023-01-24T11:22:01;24.87;;;22.23;;
39218;SDS011;24934;52.752;6.964;2023-01-24T11:24:43;24.63;;;21.83;;
39218;SDS011;24934;52.752;6.964;2023-01-24T11:27:14;26.07;;;21.20;;
39218;SDS011;24934;52.752;6.964;2023-01-24T11:29:41;23.90;;;21.30;;
39218;SDS011;24934;52.752;6.964;2023-01-24T11:32:21;25.10;;;22.43;;
39218;SDS011;24934;52.752;6.964;2023-01-24T11:37:29;23.30;;;20.90;;
39218;SDS011;24934;52.752;6.964;2023-01-24T11:40:22;24.57;;;21.97;;
39218;SDS011;24934;52.752;6.964;2023-01-24T11:45:52;24.23;;;21.63;;
39218;SDS011;24934;52.752;6.964;2023-01-24T12:08:35;24.53;;;21.87;;
39218;SDS011;24934;52.752;6.964;2023-01-24T12:11:35;25.50;;;22.80;;
39218;SDS011;24934;52.752;6.964;2023-01-24T12:22:32;24.67;;;22.07;;
39218;SDS011;24934;52.752;6.964;2023-01-24T12:25:12;24.53;;;21.93;;
39218;SDS011;24934;52.752;6.964;2023-01-24T12:27:53;24.03;;;21.47;;
39218;SDS011;24934;52.752;6.964;2023-01-24T12:35:51;25.87;;;21.73;;
39218;SDS011;24934;52.752;6.964;2023-01-24T12:38:26;24.93;;;22.33;;
39218;SDS011;24934;52.752;6.964;2023-01-24T12:41:06;26.73;;;22.00;;
39218;SDS011;24934;52.752;6.964;2023-01-24T12:49:02;25.33;;;22.33;;
39218;SDS011;24934;52.752;6.964;2023-01-24T12:51:53;24.93;;;22.23;;
39218;SDS011;24934;52.752;6.964;2023-01-24T12:59:52;24.50;;;21.90;;
39218;SDS011;24934;52.752;6.964;2023-01-24T13:02:22;27.33;;;23.73;;
39218;SDS011;24934;52.752;6.964;2023-01-24T13:13:30;25.17;;;22.50;;
39218;SDS011;24934;52.752;6.964;2023-01-24T13:22:22;25.30;;;22.60;;
39218;SDS011;24934;52.752;6.964;2023-01-24T13:33:22;24.70;;;22.00;;
39218;SDS011;24934;52.752;6.964;2023-01-24T13:35:55;26.73;;;23.50;;
39218;SDS011;24934;52.752;6.964;2023-01-24T13:38:25;26.50;;;23.60;;
39218;SDS011;24934;52.752;6.964;2023-01-24T13:41:03;32.47;;;26.80;;
39218;SDS011;24934;52.752;6.964;2023-01-24T13:46:17;32.40;;;27.30;;
39218;SDS011;24934;52.752;6.964;2023-01-24T13:48:44;26.97;;;22.80;;
39218;SDS011;24934;52.752;6.964;2023-01-24T13:56:25;26.93;;;23.37;;
39218;SDS011;24934;52.752;6.964;2023-01-24T13:58:52;25.47;;;22.63;;
39218;SDS011;24934;52.752;6.964;2023-01-24T14:01:18;24.37;;;21.77;;
39218;SDS011;24934;52.752;6.964;2023-01-24T14:04:02;28.00;;;23.27;;
39218;SDS011;24934;52.752;6.964;2023-01-24T14:06:43;25.70;;;22.87;;
39218;SDS011;24934;52.752;6.964;2023-01-24T14:09:18;25.00;;;22.30;;
39218;SDS011;24934;52.752;6.964;2023-01-24T14:12:10;25.63;;;22.83;;
39218;SDS011;24934;52.752;6.964;2023-01-24T14:20:05;25.63;;;22.57;;
39218;SDS011;24934;52.752;6.964;2023-01-24T14:23:00;25.73;;;22.93;;
39218;SDS011;24934;52.752;6.964;2023-01-24T14:25:53;26.83;;;23.57;;
39218;SDS011;24934;52.752;6.964;2023-01-24T14:31:07;25.87;;;22.90;;
39218;SDS011;24934;52.752;6.964;2023-01-24T14:33:57;26.00;;;23.00;;
39218;SDS011;24934;52.752;6.964;2023-01-24T14:36:34;26.03;;;21.57;;
39218;SDS011;24934;52.752;6.964;2023-01-24T14:41:36;24.80;;;22.10;;
39218;SDS011;24934;52.752;6.964;2023-01-24T14:44:14;28.57;;;23.77;;
39218;SDS011;24934;52.752;6.964;2023-01-24T14:47:01;24.33;;;21.70;;
39218;SDS011;24934;52.752;6.964;2023-01-24T14:51:58;26.83;;;22.80;;
39218;SDS011;24934;52.752;6.964;2023-01-24T14:54:25;25.30;;;22.60;;
39218;SDS011;24934;52.752;6.964;2023-01-24T14:56:51;25.27;;;21.90;;
39218;SDS011;24934;52.752;6.964;2023-01-24T14:59:17;25.20;;;22.33;;
39218;SDS011;24934;52.752;6.964;2023-01-24T15:01:45;25.70;;;22.40;;
39218;SDS011;24934;52.752;6.964;2023-01-24T15:04:25;25.23;;;22.20;;
39218;SDS011;24934;52.752;6.964;2023-01-24T15:07:05;27.57;;;22.23;;
39218;SDS011;24934;52.752;6.964;2023-01-24T15:09:39;24.73;;;21.77;;
39218;SDS011;24934;52.752;6.964;2023-01-24T15:12:13;27.33;;;23.17;;
39218;SDS011;24934;52.752;6.964;2023-01-24T15:14:50;28.17;;;23.63;;
39218;SDS011;24934;52.752;6.964;2023-01-24T15:17:20;26.57;;;23.47;;
39218;SDS011;24934;52.752;6.964;2023-01-24T15:19:53;26.00;;;22.47;;
39218;SDS011;24934;52.752;6.964;2023-01-24T15:22:23;25.90;;;22.57;;
39218;SDS011;24934;52.752;6.964;2023-01-24T15:24:53;25.93;;;22.40;;
39218;SDS011;24934;52.752;6.964;2023-01-24T15:30:18;28.07;;;22.87;;
39218;SDS011;24934;52.752;6.964;2023-01-24T15:35:45;27.30;;;22.43;;
39218;SDS011;24934;52.752;6.964;2023-01-24T15:49:20;27.17;;;23.47;;
39218;SDS011;24934;52.752;6.964;2023-01-24T15:54:41;28.43;;;24.07;;
39218;SDS011;24934;52.752;6.964;2023-01-24T15:57:36;27.63;;;21.93;;
39218;SDS011;24934;52.752;6.964;2023-01-24T16:02:32;30.17;;;23.00;;
39218;SDS011;24934;52.752;6.964;2023-01-24T16:04:57;26.53;;;22.80;;
39218;SDS011;24934;52.752;6.964;2023-01-24T16:07:23;25.53;;;22.13;;
39218;SDS011;24934;52.752;6.964;2023-01-24T16:09:49;26.00;;;22.47;;
39218;SDS011;24934;52.752;6.964;2023-01-24T16:12:15;25.83;;;22.60;;
39218;SDS011;24934;52.752;6.964;2023-01-24T16:14:47;31.53;;;23.50;;
39218;SDS011;24934;52.752;6.964;2023-01-24T16:17:15;29.53;;;23.90;;
39218;SDS011;24934;52.752;6.964;2023-01-24T16:19:43;34.53;;;25.50;;
39218;SDS011;24934;52.752;6.964;2023-01-24T16:22:09;40.30;;;28.33;;
39218;SDS011;24934;52.752;6.964;2023-01-24T16:24:38;33.90;;;26.17;;
39218;SDS011;24934;52.752;6.964;2023-01-24T16:27:04;37.80;;;26.57;;
39218;SDS011;24934;52.752;6.964;2023-01-24T16:29:30;35.43;;;25.47;;
39218;SDS011;24934;52.752;6.964;2023-01-24T16:31:58;42.57;;;27.80;;
39218;SDS011;24934;52.752;6.964;2023-01-24T16:34:24;29.00;;;23.57;;
39218;SDS011;24934;52.752;6.964;2023-01-24T16:36:52;27.17;;;21.40;;
39218;SDS011;24934;52.752;6.964;2023-01-24T16:39:20;36.93;;;26.33;;
39218;SDS011;24934;52.752;6.964;2023-01-24T16:41:52;28.07;;;22.73;;
39218;SDS011;24934;52.752;6.964;2023-01-24T16:44:17;38.27;;;28.53;;
39218;SDS011;24934;52.752;6.964;2023-01-24T16:46:47;29.47;;;23.93;;
39218;SDS011;24934;52.752;6.964;2023-01-24T16:49:14;32.60;;;25.40;;
39218;SDS011;24934;52.752;6.964;2023-01-24T16:51:40;28.17;;;22.00;;
39218;SDS011;24934;52.752;6.964;2023-01-24T16:54:07;28.83;;;24.03;;
39218;SDS011;24934;52.752;6.964;2023-01-24T16:56:33;29.53;;;24.23;;
39218;SDS011;24934;52.752;6.964;2023-01-24T16:58:59;27.93;;;23.63;;
39218;SDS011;24934;52.752;6.964;2023-01-24T17:01:24;29.87;;;24.27;;
39218;SDS011;24934;52.752;6.964;2023-01-24T17:03:50;36.83;;;27.67;;
39218;SDS011;24934;52.752;6.964;2023-01-24T17:06:17;36.40;;;27.50;;
39218;SDS011;24934;52.752;6.964;2023-01-24T17:08:43;32.93;;;25.03;;